Hlavní strana
METAR-TAF:

METAR-TAF

Letiště :

Magnitogorsk, Rusko

zeměpisná šířka: 53-23-36N, zeměpisná délka: 058-45-24E, výška: 436 m

Aktuální stav počasí

Zpráva byla vytvořena před 1 hodinou a 43 minutami, v 23:00 UTC
Severní vítr 4 kt
Teplota -2°C
Vlhkost vzduchu 93%
Tlak 1015 hPa
Viditelnost: 5000 m
Oblačno až skoro zataženo ve výšce 4000 ft
kouřmo

METAR: USCM 212300Z 36002MPS 5000 BR BKN040 M02/M03 Q1015 R18/090060 TEMPO 0200 FZFG RMK QFE723

Čas: 05:43 (00:43 UTC)

Předpověď počasí

Zpráva byla vytvořena před 1 hodinou a 43 minutami, v 23:00 UTC
Předpověď platná od 22 v 00 UTC do 22 v 09 UTC
Severoseverovýchodní vítr 6 kt
Viditelnost: 3100 m
Oblačno až skoro zataženo ve výšce 1100 ft
kouřmo
Dočasný
od 22 v 00 UTC do 22 v 06 UTC
Viditelnost: 0300 m
mrznoucí mlha

TAF: USCM 212300Z 2200/2209 03003MPS 3100 BR BKN011 TEMPO 2200/2206 0300 FZFG

Stav a předpovědi počasí z více než 4 000 letišť (zprávy METAR a TAF).

Červené a žluté tečky na mapě představují dostupné meteorologické stanice.

Když kurzor umístíte na tečku, zobrazí se název stanice.

Pak kliknutím zobrazíte stav a předpověď počasí.

Chcete-li změnit mapu, kliknutím na zelené tlačítko se znaménkem +mapu přiblížíte, kliknutím na zelené tlačítko se znaménkem – mapu oddálíte a kliknutím na zelené šipky přejdete na sousední mapy.


METAR-TAF: